Time;durP1;ratioP1;P1;durP2;ratioP2;P2;SDS_P1;SDS_P2;PMS_P1;PMS_P2;Temp;Humidity;BMP_temperature;BMP_pressure;BME280_temperature;BME280_humidity;BME280_pressure;Samples;Min_cycle;Max_cycle;Signal;HPM_P1;HPM_P2
2021/06/22 00:00:15;;;;;;;6.93;6.23;;;;;;;17.64;100.00;97393.84;5099932;28;20198;-73
2021/06/22 00:02:43;;;;;;;7.57;6.93;;;;;;;17.47;100.00;97395.47;5101599;28;20221;-74
2021/06/22 00:05:11;;;;;;;6.30;5.90;;;;;;;17.41;100.00;97404.41;5104143;27;20205;-73
2021/06/22 00:07:39;;;;;;;7.10;6.50;;;;;;;17.33;100.00;97406.34;5102320;28;20229;-72
2021/06/22 00:10:10;;;;;;;7.20;6.57;;;;;;;17.35;100.00;97409.63;5103276;28;20201;-71
2021/06/22 00:12:39;;;;;;;7.90;7.10;;;;;;;17.39;100.00;97423.38;5102561;28;20198;-76
2021/06/22 00:15:09;;;;;;;8.60;7.47;;;;;;;17.46;100.00;97415.28;5107184;27;20205;-73
2021/06/22 00:17:37;;;;;;;7.60;7.00;;;;;;;17.37;100.00;97430.81;5104682;28;20214;-71
2021/06/22 00:20:06;;;;;;;6.67;6.27;;;;;;;17.29;100.00;97418.53;5105572;28;20321;-72
2021/06/22 00:22:34;;;;;;;7.47;6.83;;;;;;;17.32;100.00;97418.09;5111657;27;20286;-71
2021/06/22 00:25:02;;;;;;;7.57;6.90;;;;;;;17.23;100.00;97416.72;5104652;28;20211;-70
2021/06/22 00:27:32;;;;;;;8.00;7.30;;;;;;;17.32;100.00;97427.97;5102953;27;20224;-72
2021/06/22 00:30:00;;;;;;;9.40;7.27;;;;;;;17.30;100.00;97432.72;5101880;27;20256;-73
2021/06/22 00:32:28;;;;;;;9.53;8.60;;;;;;;17.39;100.00;97420.69;5106346;28;20201;-72
2021/06/22 00:34:56;;;;;;;7.90;7.10;;;;;;;17.39;100.00;97422.56;5107236;28;20670;-73
2021/06/22 00:37:24;;;;;;;9.43;8.60;;;;;;;17.38;100.00;97415.56;5106082;28;20221;-74
2021/06/22 00:39:51;;;;;;;7.80;7.20;;;;;;;17.35;100.00;97432.88;5104279;28;21034;-73
2021/06/22 00:42:19;;;;;;;8.03;7.40;;;;;;;17.26;100.00;97431.53;5100588;27;20700;-75
2021/06/22 00:44:51;;;;;;;8.87;7.43;;;;;;;17.28;100.00;97429.47;5103606;28;20213;-74
2021/06/22 00:47:20;;;;;;;8.40;7.20;;;;;;;17.17;100.00;97426.47;5103797;28;20862;-75
2021/06/22 00:49:49;;;;;;;8.73;6.97;;;;;;;17.07;100.00;97424.28;5104077;28;20221;-70
2021/06/22 00:52:21;;;;;;;8.00;7.50;;;;;;;17.08;100.00;97430.47;5103241;27;20573;-74
2021/06/22 00:54:49;;;;;;;8.23;7.43;;;;;;;17.03;100.00;97432.97;5106412;27;20206;-72
2021/06/22 00:57:18;;;;;;;8.27;7.67;;;;;;;17.08;100.00;97433.16;5102870;27;20226;-73
2021/06/22 00:59:46;;;;;;;7.80;6.90;;;;;;;16.99;100.00;97437.13;5103551;28;20202;-74
2021/06/22 01:02:16;;;;;;;7.93;7.43;;;;;;;17.02;100.00;97439.38;5104053;28;20210;-72
2021/06/22 01:04:44;;;;;;;7.77;7.17;;;;;;;17.09;100.00;97439.31;5100896;28;20728;-73
2021/06/22 01:07:13;;;;;;;7.97;7.27;;;;;;;17.06;100.00;97436.03;5103042;28;20237;-72
2021/06/22 01:09:41;;;;;;;8.07;7.53;;;;;;;16.89;100.00;97427.72;5105229;28;20221;-73
2021/06/22 01:12:10;;;;;;;7.83;7.13;;;;;;;16.95;100.00;97442.09;5109470;27;20217;-74
2021/06/22 01:14:41;;;;;;;8.47;7.87;;;;;;;16.78;100.00;97437.25;5108205;28;20216;-73
2021/06/22 01:17:09;;;;;;;7.03;6.53;;;;;;;16.84;100.00;97429.41;5103388;28;20209;-73
2021/06/22 01:19:39;;;;;;;9.00;8.20;;;;;;;16.72;100.00;97438.13;5103339;28;20273;-73
2021/06/22 01:22:08;;;;;;;7.70;7.10;;;;;;;16.71;100.00;97441.84;5102687;28;20384;-73
2021/06/22 01:24:37;;;;;;;7.83;6.83;;;;;;;16.64;100.00;97443.75;5103888;28;20206;-72
2021/06/22 01:27:06;;;;;;;8.00;7.30;;;;;;;16.60;100.00;97442.56;5104254;28;20650;-72
2021/06/22 01:29:34;;;;;;;8.33;7.73;;;;;;;16.65;100.00;97432.03;5102155;28;20225;-73
2021/06/22 01:32:01;;;;;;;8.73;7.97;;;;;;;16.57;100.00;97437.63;5103947;28;20209;-71
2021/06/22 01:34:31;;;;;;;7.77;7.23;;;;;;;16.59;100.00;97446.25;5103415;28;20201;-72
2021/06/22 01:37:00;;;;;;;8.63;7.67;;;;;;;16.42;100.00;97444.09;5101249;28;20231;-73
2021/06/22 01:39:29;;;;;;;8.47;7.87;;;;;;;16.43;100.00;97447.59;5104094;27;20201;-73
2021/06/22 01:41:57;;;;;;;8.80;8.27;;;;;;;16.35;100.00;97454.84;5102446;28;20224;-73
2021/06/22 01:44:28;;;;;;;8.77;8.23;;;;;;;16.53;100.00;97468.53;5104277;28;20201;-73
2021/06/22 01:46:56;;;;;;;9.43;8.60;;;;;;;16.53;100.00;97463.19;5102624;28;20217;-72
2021/06/22 01:49:25;;;;;;;9.00;8.40;;;;;;;16.43;100.00;97467.13;5104291;28;20304;-73
2021/06/22 01:51:53;;;;;;;8.87;8.27;;;;;;;16.33;100.00;97466.78;5086990;28;20213;-73
2021/06/22 01:54:21;;;;;;;7.80;7.30;;;;;;;16.33;100.00;97469.44;5098307;27;21019;-72
2021/06/22 01:56:52;;;;;;;8.43;7.73;;;;;;;16.24;100.00;97460.03;5103384;28;20241;-74
2021/06/22 01:59:20;;;;;;;8.73;8.13;;;;;;;16.26;100.00;97453.44;5103344;28;20201;-73
2021/06/22 02:01:48;;;;;;;9.37;8.33;;;;;;;16.20;100.00;97446.28;5104185;27;20205;-72
2021/06/22 02:04:16;;;;;;;7.87;7.37;;;;;;;16.12;100.00;97444.69;5100587;28;20205;-73
2021/06/22 02:06:44;;;;;;;8.63;8.00;;;;;;;16.12;100.00;97455.38;5103715;28;20676;-73
2021/06/22 02:09:12;;;;;;;9.43;8.63;;;;;;;16.08;100.00;97450.66;5103405;27;20382;-74
2021/06/22 02:11:40;;;;;;;8.40;7.63;;;;;;;16.09;100.00;97450.44;5101295;28;20670;-73
2021/06/22 02:14:10;;;;;;;8.83;8.17;;;;;;;16.09;100.00;97447.75;5102898;28;20206;-72
2021/06/22 02:16:37;;;;;;;9.13;8.33;;;;;;;15.95;100.00;97451.53;5103987;28;20206;-74
2021/06/22 02:19:05;;;;;;;9.50;8.80;;;;;;;15.90;100.00;97450.31;5103294;28;20218;-73
2021/06/22 02:21:33;;;;;;;10.70;9.67;;;;;;;15.90;100.00;97444.97;5103617;27;20209;-73
2021/06/22 02:24:01;;;;;;;8.93;8.27;;;;;;;15.95;100.00;97446.19;5103160;28;20201;-72
2021/06/22 02:26:29;;;;;;;9.90;8.83;;;;;;;15.89;100.00;97453.19;5102116;28;20204;-72
2021/06/22 02:28:57;;;;;;;9.17;8.37;;;;;;;15.87;100.00;97452.56;5101384;28;20229;-74
2021/06/22 02:31:27;;;;;;;10.13;9.20;;;;;;;15.79;100.00;97456.31;5103732;28;20205;-73
2021/06/22 02:33:55;;;;;;;11.33;8.77;;;;;;;15.76;100.00;97456.72;5103831;27;20208;-73
2021/06/22 02:36:24;;;;;;;9.20;8.50;;;;;;;15.76;100.00;97460.19;5102667;28;20469;-73
2021/06/22 02:38:52;;;;;;;9.23;8.53;;;;;;;15.76;100.00;97462.06;5094664;28;20222;-72
2021/06/22 02:41:20;;;;;;;9.63;8.70;;;;;;;15.72;100.00;97466.16;5100845;28;20206;-72
2021/06/22 02:43:48;;;;;;;9.13;8.33;;;;;;;15.63;100.00;97457.56;5104621;27;20214;-73
2021/06/22 02:46:16;;;;;;;8.23;7.60;;;;;;;15.65;100.00;97458.19;5101906;28;20214;-73
2021/06/22 02:48:45;;;;;;;9.07;8.23;;;;;;;15.55;100.00;97466.63;5103060;27;20232;-72
2021/06/22 02:51:13;;;;;;;7.93;7.43;;;;;;;15.54;100.00;97466.84;5102744;28;20682;-71
2021/06/22 02:53:41;;;;;;;8.23;7.57;;;;;;;15.54;100.00;97462.31;5099406;28;20424;-73
2021/06/22 02:56:09;;;;;;;8.57;7.67;;;;;;;15.69;100.00;97454.06;5101155;28;20443;-73
2021/06/22 02:58:37;;;;;;;8.20;7.70;;;;;;;15.82;100.00;97450.53;5102131;28;20236;-74
2021/06/22 03:01:05;;;;;;;9.37;8.27;;;;;;;15.68;100.00;97456.94;5103020;28;20203;-74
2021/06/22 03:03:33;;;;;;;9.33;8.43;;;;;;;15.56;100.00;97452.25;5102890;28;20290;-73
2021/06/22 03:06:02;;;;;;;8.80;8.00;;;;;;;15.49;100.00;97454.13;5102012;28;20216;-71
2021/06/22 03:08:31;;;;;;;8.50;7.83;;;;;;;15.50;100.00;97455.75;5101466;28;20233;-72
2021/06/22 03:10:58;;;;;;;8.87;8.27;;;;;;;15.38;100.00;97447.56;5101917;27;20230;-74
2021/06/22 03:13:26;;;;;;;9.30;8.40;;;;;;;15.37;100.00;97455.78;5102608;27;20209;-72
2021/06/22 03:15:54;;;;;;;9.33;8.63;;;;;;;15.43;100.00;97454.97;5098716;28;20374;-72
2021/06/22 03:18:24;;;;;;;8.73;8.13;;;;;;;15.36;100.00;97462.97;5105440;28;20317;-74
2021/06/22 03:20:52;;;;;;;9.03;8.20;;;;;;;15.30;100.00;97467.28;5099375;28;20280;-72
2021/06/22 03:23:22;;;;;;;8.83;8.03;;;;;;;15.31;100.00;97476.94;5104118;27;20194;-72
2021/06/22 03:25:49;;;;;;;9.23;8.50;;;;;;;15.26;100.00;97474.06;5093711;28;20210;-71
2021/06/22 03:28:17;;;;;;;10.17;9.37;;;;;;;15.26;100.00;97475.94;5102020;27;20590;-72
2021/06/22 03:30:47;;;;;;;8.97;8.23;;;;;;;15.27;100.00;97481.03;5098147;28;20791;-73
2021/06/22 03:33:17;;;;;;;10.20;9.23;;;;;;;15.31;100.00;97482.25;5101910;28;20238;-72
2021/06/22 03:35:45;;;;;;;9.23;8.43;;;;;;;15.33;100.00;97480.22;5100816;28;20216;-73
2021/06/22 03:38:13;;;;;;;9.83;9.00;;;;;;;15.26;100.00;97479.41;5105797;28;20396;-70
2021/06/22 03:40:42;;;;;;;9.50;8.80;;;;;;;15.32;100.00;97491.09;5108636;27;20198;-73
2021/06/22 03:43:10;;;;;;;9.70;8.80;;;;;;;15.32;100.00;97488.44;5105502;27;20202;-72
2021/06/22 03:45:38;;;;;;;9.03;8.53;;;;;;;15.32;100.00;97488.44;5104411;28;20209;-73
2021/06/22 03:48:07;;;;;;;9.27;8.57;;;;;;;15.28;100.00;97485.34;5103355;28;20609;-70
2021/06/22 03:50:35;;;;;;;10.17;9.37;;;;;;;15.29;100.00;97480.84;5101185;27;20229;-69
2021/06/22 03:53:03;;;;;;;11.43;10.30;;;;;;;15.27;100.00;97486.38;5104903;28;20205;-70
2021/06/22 03:55:31;;;;;;;10.27;9.40;;;;;;;15.29;100.00;97481.66;5105024;27;20562;-70
2021/06/22 03:58:02;;;;;;;10.30;9.43;;;;;;;15.37;100.00;97487.84;5101424;27;20221;-70
2021/06/22 04:00:31;;;;;;;9.90;9.23;;;;;;;15.44;100.00;97485.97;5100067;28;20205;-70
2021/06/22 04:03:01;;;;;;;10.33;9.53;;;;;;;15.54;100.00;97491.69;5102323;28;20278;-66
2021/06/22 04:05:29;;;;;;;10.10;9.40;;;;;;;15.54;100.00;97486.34;5105062;28;20202;-66
2021/06/22 04:07:58;;;;;;;11.50;10.30;;;;;;;15.52;100.00;97492.91;5104888;28;20719;-65
2021/06/22 04:10:26;;;;;;;11.10;9.93;;;;;;;15.52;100.00;97487.56;5102020;28;20221;-66
2021/06/22 04:12:54;;;;;;;11.17;10.20;;;;;;;15.58;100.00;97497.44;5104491;28;20197;-66
2021/06/22 04:15:23;;;;;;;10.10;9.17;;;;;;;15.69;100.00;97485.28;5101219;28;20212;-65
2021/06/22 04:17:52;;;;;;;10.30;9.50;;;;;;;15.90;100.00;97489.56;5105904;28;20291;-65
2021/06/22 04:20:20;;;;;;;10.43;9.00;;;;;;;15.92;100.00;97498.22;5105020;28;20208;-65
2021/06/22 04:22:48;;;;;;;9.77;9.00;;;;;;;15.90;100.00;97500.25;5105486;27;20617;-66
2021/06/22 04:25:16;;;;;;;10.53;9.57;;;;;;;15.86;100.00;97510.53;5105085;28;20216;-65
2021/06/22 04:27:44;;;;;;;10.37;9.47;;;;;;;15.96;100.00;97518.16;5104815;28;20221;-64
2021/06/22 04:30:13;;;;;;;9.03;8.33;;;;;;;16.14;100.00;97520.13;5099238;28;20233;-65
2021/06/22 04:32:42;;;;;;;9.80;9.00;;;;;;;16.28;100.00;97520.88;5099190;28;20206;-66
2021/06/22 04:35:11;;;;;;;9.53;8.90;;;;;;;16.24;100.00;97530.34;5105349;28;20209;-66
2021/06/22 04:37:40;;;;;;;8.93;8.23;;;;;;;16.50;100.00;97531.28;5103504;27;20222;-66
2021/06/22 04:40:09;;;;;;;8.87;8.07;;;;;;;16.59;100.00;97529.19;5105553;28;20201;-67
2021/06/22 04:42:37;;;;;;;8.53;7.73;;;;;;;16.57;100.00;97534.72;5105705;27;20212;-67
2021/06/22 04:45:07;;;;;;;9.93;9.23;;;;;;;16.54;100.00;97539.72;5104279;28;20212;-67
2021/06/22 04:47:36;;;;;;;9.60;8.90;;;;;;;16.67;100.00;97536.94;5103752;28;20230;-67
2021/06/22 04:50:06;;;;;;;9.00;8.03;;;;;;;16.57;100.00;97534.72;5097248;27;20230;-65
2021/06/22 04:52:35;;;;;;;10.07;9.27;;;;;;;16.53;100.00;97527.38;5102199;27;20205;-67
2021/06/22 04:55:03;;;;;;;10.53;9.67;;;;;;;16.60;100.00;97520.13;5105026;27;20202;-69
2021/06/22 04:57:32;;;;;;;10.07;9.47;;;;;;;16.67;100.00;97512.88;5101977;28;20248;-69
2021/06/22 05:00:00;;;;;;;10.50;9.70;;;;;;;16.76;100.00;97511.56;5100339;27;20224;-70
2021/06/22 05:02:28;;;;;;;12.53;9.70;;;;;;;16.75;100.00;97514.47;5101936;28;20205;-69
2021/06/22 05:04:56;;;;;;;10.93;9.83;;;;;;;16.86;100.00;97513.78;5102722;28;20202;-70
2021/06/22 05:07:25;;;;;;;10.90;9.93;;;;;;;16.88;100.00;97519.72;5113057;27;20225;-71
2021/06/22 05:09:53;;;;;;;11.87;10.97;;;;;;;16.80;100.00;97517.31;5105424;28;20201;-69
2021/06/22 05:12:21;;;;;;;10.60;9.87;;;;;;;16.76;100.00;97514.25;5105188;27;20470;-69
2021/06/22 05:14:49;;;;;;;12.97;11.83;;;;;;;16.72;100.00;97512.25;5101903;28;20213;-71
2021/06/22 05:17:17;;;;;;;11.53;10.53;;;;;;;16.76;100.00;97511.56;5104647;28;20257;-69
2021/06/22 05:19:45;;;;;;;12.20;11.10;;;;;;;16.77;100.00;97515.88;5106016;27;20198;-70
2021/06/22 05:22:13;;;;;;;12.83;11.57;;;;;;;16.91;100.00;97516.63;5101125;27;20970;-68
2021/06/22 05:24:42;;;;;;;12.17;11.33;;;;;;;16.90;100.00;97519.53;5103656;28;20194;-70
2021/06/22 05:27:12;;;;;;;11.80;10.90;;;;;;;17.07;100.00;97511.81;5104518;27;20202;-69
2021/06/22 05:29:41;;;;;;;11.80;10.67;;;;;;;17.26;100.00;97523.41;5101852;28;20228;-70
2021/06/22 05:32:08;;;;;;;12.00;10.97;;;;;;;17.38;100.00;97525.38;5103274;27;20252;-69
2021/06/22 05:34:36;;;;;;;11.87;10.97;;;;;;;17.53;100.00;97525.03;5104027;28;20209;-70
2021/06/22 05:37:04;;;;;;;11.97;11.10;;;;;;;17.49;100.00;97521.97;5103050;27;20869;-70
2021/06/22 05:39:32;;;;;;;11.23;10.47;;;;;;;17.65;100.00;97536.66;5103519;28;20202;-70
2021/06/22 05:42:02;;;;;;;12.13;11.13;;;;;;;17.79;100.00;97526.63;5104186;28;20221;-70
2021/06/22 05:44:30;;;;;;;11.53;10.43;;;;;;;17.57;100.00;97537.75;5101006;28;20216;-69
2021/06/22 05:46:58;;;;;;;11.97;10.77;;;;;;;17.83;100.00;97535.06;5096012;28;20236;-68
2021/06/22 05:49:26;;;;;;;11.80;10.90;;;;;;;18.28;100.00;97532.09;5095802;27;20233;-67
2021/06/22 05:51:54;;;;;;;11.50;10.57;;;;;;;18.45;100.00;97531.47;5102099;27;20225;-67
2021/06/22 05:54:22;;;;;;;11.63;10.77;;;;;;;18.83;100.00;97537.56;5100890;28;20208;-67
2021/06/22 05:56:50;;;;;;;10.50;9.70;;;;;;;18.74;100.00;97545.94;5101741;28;20216;-66
2021/06/22 05:59:19;;;;;;;11.50;10.43;;;;;;;18.59;100.00;97546.34;5103002;28;20222;-67
2021/06/22 06:01:47;;;;;;;11.63;10.83;;;;;;;18.72;100.00;97556.06;5101389;28;20206;-67
2021/06/22 06:04:15;;;;;;;10.47;9.70;;;;;;;18.80;100.00;97554.94;5103723;28;20735;-67
2021/06/22 06:06:43;;;;;;;11.30;10.43;;;;;;;18.74;100.00;97553.19;5101373;28;20209;-67
2021/06/22 06:09:12;;;;;;;12.13;11.10;;;;;;;18.79;100.00;97550.63;5097919;28;20718;-69
2021/06/22 06:11:41;;;;;;;11.20;10.30;;;;;;;18.78;100.00;97555.19;5101472;28;20596;-67
2021/06/22 06:14:09;;;;;;;10.40;9.60;;;;;;;18.61;100.00;97546.94;5099482;28;20777;-68
2021/06/22 06:16:39;;;;;;;11.30;10.50;;;;;;;18.65;100.00;97544.63;5092582;28;20245;-69
2021/06/22 06:19:07;;;;;;;11.37;10.57;;;;;;;18.63;100.00;97546.72;5093294;28;20234;-69
2021/06/22 06:21:37;;;;;;;12.27;11.43;;;;;;;18.52;100.00;97541.06;5098214;27;20197;-68
2021/06/22 06:24:06;;;;;;;11.37;10.57;;;;;;;18.68;100.00;97546.03;5102846;28;20205;-69
2021/06/22 06:26:42;;;;;;;11.53;10.53;;;;;;;18.62;100.00;97543.22;5103015;28;20205;-71
2021/06/22 06:29:15;;;;;;;11.17;10.47;;;;;;;18.74;100.00;97547.81;5099305;28;20225;-70
2021/06/22 06:31:44;;;;;;;11.67;10.87;;;;;;;18.87;100.00;97560.22;5092651;28;20520;-71
2021/06/22 06:34:14;;;;;;;12.43;11.43;;;;;;;19.00;100.00;97554.69;5100630;27;20596;-72
2021/06/22 06:36:42;;;;;;;12.20;11.40;;;;;;;19.01;100.00;97559.00;5098434;28;20412;-72
2021/06/22 06:39:10;;;;;;;11.77;10.90;;;;;;;18.90;100.00;97562.44;5101041;28;20411;-72
2021/06/22 06:41:38;;;;;;;12.37;11.47;;;;;;;18.77;100.00;97568.81;5099463;28;20206;-71
2021/06/22 06:44:06;;;;;;;12.00;11.00;;;;;;;18.74;100.00;97569.28;5104719;27;20209;-72
2021/06/22 06:46:34;;;;;;;11.73;10.83;;;;;;;18.97;100.00;97587.34;5098750;27;20737;-71
2021/06/22 06:49:03;;;;;;;11.73;10.83;;;;;;;19.05;100.00;97583.53;5101503;28;20229;-72
2021/06/22 06:51:31;;;;;;;13.23;12.33;;;;;;;19.36;99.91;97582.44;5104559;27;20225;-71
2021/06/22 06:53:59;;;;;;;13.47;12.53;;;;;;;19.31;96.36;97581.50;5098161;28;20205;-71
2021/06/22 06:56:27;;;;;;;12.80;11.70;;;;;;;19.15;95.80;97580.31;5097168;28;20482;-72
2021/06/22 06:58:55;;;;;;;11.77;10.80;;;;;;;19.29;95.38;97583.59;5103665;27;20233;-71
2021/06/22 07:01:23;;;;;;;11.97;11.07;;;;;;;19.19;98.97;97586.84;5103230;27;20205;-70
2021/06/22 07:03:53;;;;;;;11.80;11.00;;;;;;;19.12;100.00;97584.25;5094869;28;20362;-71
2021/06/22 07:06:22;;;;;;;11.13;10.40;;;;;;;19.05;100.00;97580.84;5101695;28;20427;-71
2021/06/22 07:08:50;;;;;;;11.50;10.70;;;;;;;19.41;97.77;97567.50;5097418;28;20225;-71
2021/06/22 07:11:21;;;;;;;11.20;10.47;;;;;;;19.43;98.10;97566.22;5102100;28;20775;-71
2021/06/22 07:13:51;;;;;;;11.13;10.43;;;;;;;19.69;91.89;97563.31;5100790;27;20250;-71
2021/06/22 07:16:19;;;;;;;12.77;11.57;;;;;;;19.91;92.43;97571.63;5101502;28;20262;-70
2021/06/22 07:18:47;;;;;;;12.33;11.43;;;;;;;19.79;95.00;97568.91;5098978;28;20392;-71
2021/06/22 07:21:18;;;;;;;14.07;12.90;;;;;;;20.03;94.29;97567.06;5101270;28;20236;-71
2021/06/22 07:23:48;;;;;;;13.10;12.03;;;;;;;19.85;92.84;97573.34;5103334;27;20197;-71
2021/06/22 07:26:32;;;;;;;13.20;11.93;;;;;;;20.06;90.04;97579.22;5102099;28;21632;-73
2021/06/22 07:29:00;;;;;;;13.17;12.27;;;;;;;20.14;89.35;97580.75;5098977;28;20232;-71
2021/06/22 07:31:28;;;;;;;12.20;11.30;;;;;;;20.09;87.73;97578.75;5099068;28;20209;-71
2021/06/22 07:33:56;;;;;;;12.27;11.37;;;;;;;20.21;90.46;97578.75;5104124;28;20205;-71
2021/06/22 07:36:24;;;;;;;11.47;10.67;;;;;;;20.23;87.04;97580.13;5102320;28;20197;-71
2021/06/22 07:38:54;;;;;;;12.30;11.37;;;;;;;20.36;88.02;97579.03;5099667;28;20221;-71
2021/06/22 07:41:22;;;;;;;12.53;11.80;;;;;;;20.35;87.62;97584.69;5100369;28;20213;-73
2021/06/22 07:43:50;;;;;;;12.83;11.90;;;;;;;20.41;90.29;97582.91;5103061;28;20210;-72
2021/06/22 07:46:18;;;;;;;14.77;13.37;;;;;;;20.48;89.38;97581.72;5100797;28;20213;-72
2021/06/22 07:48:47;;;;;;;14.87;13.60;;;;;;;20.31;90.33;97583.53;5097655;28;20282;-71
2021/06/22 07:51:15;;;;;;;14.00;12.67;;;;;;;20.55;88.54;97589.66;5100693;28;20217;-72
2021/06/22 07:53:42;;;;;;;14.43;13.43;;;;;;;20.51;86.23;97597.38;5101587;28;20225;-71
2021/06/22 07:56:12;;;;;;;14.77;13.57;;;;;;;20.32;87.75;97593.22;5098680;28;20216;-72
2021/06/22 07:58:40;;;;;;;14.33;13.33;;;;;;;20.29;88.20;97594.50;5101341;28;20222;-72
2021/06/22 08:01:08;;;;;;;15.23;13.80;;;;;;;20.46;85.79;97591.91;5101470;28;20201;-72
2021/06/22 08:03:36;;;;;;;15.57;14.37;;;;;;;20.40;84.23;97590.16;5101747;28;20258;-71
2021/06/22 08:06:05;;;;;;;15.33;13.93;;;;;;;20.48;85.21;97591.69;5102369;28;20201;-71
2021/06/22 08:08:32;;;;;;;14.70;13.57;;;;;;;20.38;87.24;97592.28;5102068;28;20734;-71
2021/06/22 08:11:00;;;;;;;16.40;15.00;;;;;;;20.53;82.44;97594.47;5101439;28;20206;-71
2021/06/22 08:13:30;;;;;;;15.77;14.67;;;;;;;20.56;81.81;97593.16;5100920;28;20225;-69
2021/06/22 08:15:59;;;;;;;15.47;14.07;;;;;;;20.64;82.99;97595.47;5099627;28;20654;-72
2021/06/22 08:18:28;;;;;;;15.40;14.17;;;;;;;21.19;79.83;97590.59;5101349;28;20217;-71
2021/06/22 08:20:56;;;;;;;13.60;12.60;;;;;;;21.17;80.46;97590.03;5101339;28;20674;-73
2021/06/22 08:23:24;;;;;;;15.40;14.20;;;;;;;21.13;78.96;97586.97;5103033;28;20203;-71
2021/06/22 08:25:53;;;;;;;16.83;15.53;;;;;;;20.88;80.08;97598.94;5093455;28;20207;-73
2021/06/22 08:28:21;;;;;;;15.87;14.67;;;;;;;21.10;79.97;97598.25;5093158;28;21154;-71
2021/06/22 08:30:50;;;;;;;16.13;15.03;;;;;;;21.11;80.21;97599.88;5104261;28;20209;-71
2021/06/22 08:33:19;;;;;;;15.33;14.13;;;;;;;21.09;80.06;97597.44;5105762;27;20232;-71
2021/06/22 08:35:48;;;;;;;14.50;13.40;;;;;;;21.12;80.22;97609.59;5104241;28;20209;-72
2021/06/22 08:38:16;;;;;;;18.23;16.83;;;;;;;20.99;81.88;97599.94;5105305;28;20217;-71
2021/06/22 08:40:46;;;;;;;18.10;16.60;;;;;;;21.02;82.13;97602.13;5104630;28;20202;-72
2021/06/22 08:43:16;;;;;;;17.63;16.37;;;;;;;21.22;81.63;97607.09;5103420;28;20201;-71
2021/06/22 08:45:45;;;;;;;17.67;16.37;;;;;;;21.31;80.07;97604.00;5104136;28;20211;-71
2021/06/22 08:48:15;;;;;;;18.90;17.57;;;;;;;21.22;80.02;97598.19;5110559;27;20247;-70
2021/06/22 08:50:44;;;;;;;18.97;17.47;;;;;;;21.51;78.40;97598.94;5108304;27;20201;-74
2021/06/22 08:53:13;;;;;;;20.13;18.53;;;;;;;20.72;79.19;97605.03;5105000;28;20719;-72
2021/06/22 08:55:42;;;;;;;18.13;16.83;;;;;;;20.62;80.67;97602.97;5105444;27;20231;-72
2021/06/22 08:58:12;;;;;;;19.53;17.87;;;;;;;20.53;81.93;97592.56;5109249;27;20247;-74
2021/06/22 09:00:41;;;;;;;17.53;16.00;;;;;;;20.62;82.62;97598.41;5126954;27;20212;-73
2021/06/22 09:03:12;;;;;;;18.37;16.87;;;;;;;20.60;82.01;97600.53;5123246;27;20215;-72
2021/06/22 09:05:42;;;;;;;17.10;15.80;;;;;;;20.88;80.62;97601.63;5101164;27;20211;-72
2021/06/22 09:08:18;;;;;;;16.40;14.90;;;;;;;20.95;80.89;97609.56;5104693;27;20586;-71
2021/06/22 09:10:46;;;;;;;15.27;14.17;;;;;;;20.71;81.50;97608.78;5104199;28;20744;-73
2021/06/22 09:13:15;;;;;;;15.70;14.30;;;;;;;20.79;80.95;97609.28;5104137;28;20222;-71
2021/06/22 09:15:46;;;;;;;15.53;14.33;;;;;;;20.87;78.79;97607.25;5102267;28;20248;-72
2021/06/22 09:18:27;;;;;;;14.23;12.97;;;;;;;20.80;78.80;97608.22;5104335;28;20222;-70
2021/06/22 09:20:58;;;;;;;13.60;12.57;;;;;;;21.21;78.68;97604.63;5100945;28;20213;-71
2021/06/22 09:23:28;;;;;;;12.40;11.50;;;;;;;21.31;79.30;97602.09;5104531;28;20202;-72
2021/06/22 09:25:56;;;;;;;11.70;10.70;;;;;;;21.79;75.11;97599.13;5103882;28;20209;-72
2021/06/22 09:28:29;;;;;;;11.63;10.90;;;;;;;21.90;74.48;97602.78;5104730;28;20233;-72
2021/06/22 09:31:00;;;;;;;11.17;10.30;;;;;;;21.98;74.23;97600.50;5102059;28;20210;-71
2021/06/22 09:33:34;;;;;;;10.10;9.27;;;;;;;22.02;74.41;97605.38;5102959;28;20312;-72
2021/06/22 09:36:09;;;;;;;11.07;10.17;;;;;;;22.33;72.98;97600.41;5103295;27;20201;-72
2021/06/22 09:38:39;;;;;;;10.90;10.17;;;;;;;22.55;70.79;97608.53;5104191;28;20231;-72
2021/06/22 09:41:10;;;;;;;8.73;7.97;;;;;;;22.62;70.16;97606.47;5104070;28;20197;-72
2021/06/22 09:43:44;;;;;;;8.50;7.83;;;;;;;22.37;69.75;97601.53;5103985;28;20205;-71
2021/06/22 09:46:13;;;;;;;8.20;7.60;;;;;;;22.71;66.90;97609.53;5102570;28;20216;-72
2021/06/22 09:48:47;;;;;;;7.67;7.03;;;;;;;22.60;68.37;97610.50;5103631;27;20232;-72
2021/06/22 09:51:16;;;;;;;9.07;8.17;;;;;;;22.92;67.19;97612.47;5104650;27;20197;-72
2021/06/22 09:53:44;;;;;;;8.53;7.73;;;;;;;22.91;68.00;97616.22;5103952;28;20229;-71
2021/06/22 09:56:21;;;;;;;9.93;8.93;;;;;;;22.94;68.78;97613.84;5103438;28;20284;-71
2021/06/22 09:58:50;;;;;;;8.93;8.13;;;;;;;22.95;66.83;97620.09;5085075;28;20220;-70
2021/06/22 10:01:41;;;;;;;9.47;8.63;;;;;;;23.06;68.11;97611.00;5104059;28;20209;-71
2021/06/22 10:04:15;;;;;;;8.20;7.50;;;;;;;23.27;67.47;97606.66;5101966;27;20312;-73
2021/06/22 10:06:49;;;;;;;9.40;8.80;;;;;;;22.87;68.05;97607.00;5102015;28;20665;-72
2021/06/22 10:09:25;;;;;;;10.23;9.33;;;;;;;22.39;69.15;97602.94;5103408;28;20228;-71
2021/06/22 10:12:03;;;;;;;9.53;8.90;;;;;;;22.73;68.86;97596.59;5103644;28;20201;-71
2021/06/22 10:14:32;;;;;;;8.87;8.27;;;;;;;22.75;69.47;97602.56;5103426;28;20213;-71
2021/06/22 10:17:02;;;;;;;9.10;8.50;;;;;;;23.22;67.31;97595.75;5100115;28;20526;-71
2021/06/22 10:19:30;;;;;;;9.40;8.60;;;;;;;23.45;65.44;97595.72;5102202;28;20216;-72
2021/06/22 10:22:01;;;;;;;9.60;8.90;;;;;;;23.62;64.24;97595.56;5101516;27;20209;-72
2021/06/22 10:24:31;;;;;;;8.67;7.97;;;;;;;23.29;65.23;97600.16;5103216;27;20198;-71
2021/06/22 10:27:01;;;;;;;8.77;8.10;;;;;;;23.55;65.80;97609.31;5103916;28;20202;-71
2021/06/22 10:29:31;;;;;;;8.37;7.67;;;;;;;24.22;62.50;97604.38;5101986;28;20213;-71
2021/06/22 10:32:00;;;;;;;8.20;7.17;;;;;;;24.02;59.64;97598.84;5099664;28;20210;-69
2021/06/22 10:34:28;;;;;;;10.53;8.97;;;;;;;23.73;63.79;97605.38;5105306;27;20229;-72
2021/06/22 10:37:01;;;;;;;8.00;7.50;;;;;;;23.95;64.41;97607.16;5099134;28;20684;-70
2021/06/22 10:39:33;;;;;;;7.80;7.23;;;;;;;24.02;62.70;97609.66;5102946;28;20201;-73
2021/06/22 10:42:08;;;;;;;8.07;7.53;;;;;;;23.45;64.64;97609.22;5103411;28;20508;-71
2021/06/22 10:44:45;;;;;;;7.70;7.10;;;;;;;23.51;64.64;97614.44;5102838;27;20205;-72
2021/06/22 10:47:25;;;;;;;7.70;7.10;;;;;;;23.53;64.02;97612.28;5100757;28;20872;-71
2021/06/22 10:50:30;;;;;;;8.27;6.97;;;;;;;23.85;62.71;97605.22;5102143;28;20212;-73
2021/06/22 10:53:01;;;;;;;7.50;7.00;;;;;;;24.70;59.85;97598.06;5095482;28;20216;-72
2021/06/22 10:55:58;;;;;;;7.17;6.67;;;;;;;24.91;60.01;97600.88;5101297;28;20500;-72
2021/06/22 10:58:26;;;;;;;8.00;7.43;;;;;;;24.42;59.04;97602.84;5102929;28;20821;-73
2021/06/22 11:01:16;;;;;;;7.97;7.47;;;;;;;24.12;61.03;97599.72;5102956;28;20218;-72
2021/06/22 11:03:44;;;;;;;7.50;7.00;;;;;;;24.41;60.53;97601.19;5100277;28;20197;-72
2021/06/22 11:06:36;;;;;;;7.30;6.77;;;;;;;23.40;63.03;97601.88;5101375;28;20205;-71
2021/06/22 11:09:19;;;;;;;7.30;6.80;;;;;;;23.90;62.62;97594.41;5083448;28;20237;-72
2021/06/22 11:11:47;;;;;;;6.77;6.37;;;;;;;25.50;56.14;97604.22;5101674;28;20212;-73
2021/06/22 11:14:17;;;;;;;7.43;6.83;;;;;;;25.55;54.83;97607.75;5100630;28;20747;-73
2021/06/22 11:16:45;;;;;;;7.20;6.80;;;;;;;26.17;53.72;97600.66;5102807;27;20201;-72
2021/06/22 11:19:14;;;;;;;6.70;6.30;;;;;;;25.71;53.84;97600.44;5099043;28;20228;-72
2021/06/22 11:21:53;;;;;;;5.77;5.47;;;;;;;25.09;55.67;97599.56;5102086;28;20203;-73
2021/06/22 11:24:24;;;;;;;7.40;6.90;;;;;;;24.45;59.85;97598.78;5103336;27;20210;-72
2021/06/22 11:27:05;;;;;;;7.23;6.83;;;;;;;24.53;60.17;97598.28;5101683;28;20201;-72
2021/06/22 11:29:50;;;;;;;6.87;6.37;;;;;;;24.56;59.03;97590.44;5101753;28;20217;-73
2021/06/22 11:32:42;;;;;;;8.03;6.10;;;;;;;24.71;58.75;97583.44;5102671;28;20207;-72